Aviation Digital Data Service (ADDS)

Output produced by METARs form (0028 UTC 17 July 2019)
found at http://www.aviationweather.gov/metar/data/
 
TAF SCFA 162256Z 1700/1724 19008KT 9999 OVC020 TN12/1710Z TX15/1718Z 
     BECMG 1704/1706 14004KT OVC015 
     BECMG 1713/1715 19010KT BKN020 
     BECMG 1716/1718 FEW025 
     BECMG 1722/1724 BKN018
       
TAF SCAR 162258Z 1700/1724 18003KT CAVOK TN16/1710Z TX18/1718Z 
     BECMG 1702/1704 15004KT OVC020 
     BECMG 1715/1716 22008KT BKN025 
     BECMG 1717/1719 CAVOK 
     BECMG 1722/1724 OVC025
       
TAF SCBA 162223Z 1700/1724 VRB02KT CAVOK TNM02/1707Z TX04/1719Z 
     BECMG 1702/1704 9999 BKN070 
     TEMPO 1705/1713 28004KT 7000 -SHSN SCT010 OVC025 
     BECMG 1713/1715 31010KT 9999 -SHRA SCT030 BKN040 
     BECMG 1716/1718 31015KT 9999 NSW SCT040 BKN180 
     BECMG 1719/1721 32015KT 
     BECMG 1722/1724 32022KT 9999 NSW SCT030
       
TAF SCCF 162258Z 1700/1724 24004KT CAVOK TN00/1710Z TX22/1718Z 
     BECMG 1701/1703 11010KT 
     BECMG 1709/1711 09020KT 
     BECMG 1714/1716 10008KT 
     BECMG 1717/1719 27015KT
       
TAF SCIE 162224Z 1700/1724 01006KT 8000 BKN015 TX12/1719Z TN09/1710Z 
     TEMPO 1701/1704 2000 -DZ OVC005 
     TEMPO 1708/1711 36015KT 5000 SHRA SCT010 BKN020 OVC040 
     BECMG 1712/1714 36015G25KT 3000 RA FEW005 BKN010 OVC030 
     TEMPO 1722/1800 23010KT 7000 -SHRA
       
TAF SCAT 162253Z 1700/1724 24004KT CAVOK TN09/1706Z TX15/1718Z 
     BECMG 1702/1704 14008KT OVC008 
     BECMG 1706/1708 24004KT OVC007 
     BECMG 1712/1714 OVC013 
     BECMG 1716/1718 25008KT CAVOK 
     BECMG 1722/1724 22004KT BKN010
       
TAF COR SCDA 162230Z 1700/1724 24004KT 9999 OVC025 TN15/1704Z TX17/ 1718Z 
     BECMG 1704/1706 12004KT 
     BECMG 1715/1717 26010KT FEW025 
     BECMG 1722/1724 24004KT OVC025
       
TAF COR SCTE 162350Z 1700/1724 01015KT 9999 -RA SCT006 OVC012 TN09/1712Z
TX11/1618Z 
     TEMPO 1700/1703 36015G26KT 7000 -RA FEW005 BKN012 OVC018 
     BECMG 1704/1706 36020G32KT 4000 RA SCT005 BKN010 OVC016 
     TEMPO 1705/1710 35013KT 2000 +RA BKN005 OVC010 
     BECMG 1710/1712 30015KT 8000 -SHRA FEW006 SCT010 BKN016 
     BECMG 1718/1720 27010KT 9999 NSW FEW018 BKN025 
     BECMG 1721/1723 26005KT SCT030
       
TAF COR SCCI 162248Z 1700/1800 27015KT 9999 SCT030 TN00/1712Z TX04/1718Z 
     BECMG 1700/1702 32013KT FEW040 
     BECMG 1709/1711 02010KT 
     BECMG 1721/1723 32010KT
       
TAF SCEL 162224Z 1700/1724 18005KT CAVOK TX18/1719Z TN02/1710Z 
     BECMG 1702/1704 00000KT 5000 HZ NSC 
     TEMPO 1707/1713 VRB02KT 2000 BR 
     BECMG 1716/1718 19005KT 8000 NSC 
     TEMPO 1719/1722 16005KT